TAF KDFW
KDFW 090657Z 0907/1012 17011KT P6SM SCT010 BKN200 WS020/19045KT FM090800 18011KT 5SM BR BKN009 WS020/22045KT TEMPO 0908/0912 1SM BR BKN006 FM091500 22015G25KT P6SM SCT020 BKN200 FM100000 19011KT P6SM BKN200=
METAR KDFW
SPECI KDFW 090740Z 17011KT 9SM BKN013 OVC220 16/14 A2980 RMK AO2 T01610139 ?
KDFW 090653Z 18010KT 10SM FEW010 BKN220 OVC300 16/13 A2981 RMK AO2 SLP092 T01560128 ?
COR KDFW 090553Z 16007KT 10SM BKN220 OVC300 15/12 A2984 RMK AO2 SLP101 T01500122 10150 20106 401500050 56013
KDFW 090453Z 16008KT 10SM BKN230 BKN300 14/11 A2985 RMK AO2 SLP105 T01390111 ?
KDFW 090353Z 15008KT 10SM BKN230 BKN300 13/11 A2986 RMK AO2 SLP109 T01330106
WC KDFW
WS KDFW
WV KDFW